Time;durP1;ratioP1;P1;durP2;ratioP2;P2;SDS_P1;SDS_P2;PMS_P1;PMS_P2;Temp;Humidity;BMP_temperature;BMP_pressure;BME280_temperature;BME280_humidity;BME280_pressure;Samples;Min_cycle;Max_cycle;Signal;HPM_P1;HPM_P2
2023/06/10 00:00:01;;;;;;;6.50;5.80;;;25.80;53.10;;;;;;4900856;29;20279;-87
2023/06/10 00:02:27;;;;;;;7.60;5.73;;;25.80;53.00;;;;;;4900481;29;20192;-87
2023/06/10 00:04:53;;;;;;;6.53;5.83;;;25.70;53.00;;;;;;4916066;29;20224;-87
2023/06/10 00:07:18;;;;;;;6.53;5.57;;;25.80;53.10;;;;;;4902976;29;20533;-87
2023/06/10 00:09:45;;;;;;;6.67;6.00;;;25.80;53.00;;;;;;4922785;29;20189;-87
2023/06/10 00:12:10;;;;;;;6.60;6.00;;;25.80;53.00;;;;;;4933722;29;20275;-87
2023/06/10 00:14:39;;;;;;;6.80;6.10;;;25.70;53.10;;;;;;4931897;29;20284;-87
2023/06/10 00:17:09;;;;;;;6.27;5.67;;;25.60;53.20;;;;;;4899285;29;20180;-87
2023/06/10 00:19:36;;;;;;;6.23;5.63;;;25.60;53.20;;;;;;4899128;29;20216;-87
2023/06/10 00:22:02;;;;;;;8.13;5.57;;;25.70;53.20;;;;;;4898516;29;20356;-87
2023/06/10 00:24:29;;;;;;;6.13;5.53;;;25.70;53.10;;;;;;4931089;29;20176;-87
2023/06/10 00:26:54;;;;;;;7.40;5.90;;;25.70;53.20;;;;;;4929822;29;20177;-87
2023/06/10 00:29:20;;;;;;;6.47;5.87;;;25.70;53.20;;;;;;4930931;29;20482;-87
2023/06/10 00:31:47;;;;;;;6.00;5.40;;;25.60;53.20;;;;;;4930924;29;20173;-87
2023/06/10 00:34:14;;;;;;;6.30;5.53;;;25.60;53.20;;;;;;4929833;29;20196;-87
2023/06/10 00:36:40;;;;;;;6.47;5.67;;;25.60;53.20;;;;;;4930902;29;20276;-87
2023/06/10 00:39:07;;;;;;;5.83;5.30;;;25.70;53.20;;;;;;4899553;29;20375;-87
2023/06/10 00:41:33;;;;;;;6.37;5.77;;;25.70;53.20;;;;;;4915408;29;20292;-87
2023/06/10 00:44:04;;;;;;;6.50;5.90;;;25.60;53.10;;;;;;4931775;29;20180;-87
2023/06/10 00:46:32;;;;;;;6.30;5.70;;;25.70;53.20;;;;;;4900430;29;20196;-88
2023/06/10 00:48:58;;;;;;;6.17;5.37;;;25.70;53.20;;;;;;4932158;29;20172;-88
2023/06/10 00:51:25;;;;;;;6.47;5.63;;;25.70;53.20;;;;;;4900272;29;20205;-87
2023/06/10 00:53:52;;;;;;;7.17;5.83;;;25.70;53.20;;;;;;4931128;29;20183;-87
2023/06/10 00:56:17;;;;;;;6.80;5.73;;;25.70;53.20;;;;;;4915755;29;20437;-87
2023/06/10 00:58:43;;;;;;;6.93;5.70;;;25.70;53.20;;;;;;4931259;29;20219;-87
2023/06/10 01:01:11;;;;;;;6.23;5.63;;;25.60;53.30;;;;;;4914538;29;20188;-87
2023/06/10 01:03:45;;;;;;;5.80;5.30;;;25.60;53.30;;;;;;4928804;29;20181;-88
2023/06/10 01:06:19;;;;;;;6.27;5.67;;;25.60;53.30;;;;;;4929917;29;20239;-87
2023/06/10 01:09:20;;;;;;;7.13;5.90;;;25.60;53.40;;;;;;4913839;29;20557;-87
2023/06/10 01:12:02;;;;;;;6.20;5.60;;;25.60;53.30;;;;;;4915634;29;20502;-87
2023/06/10 01:14:31;;;;;;;6.00;5.40;;;25.60;53.40;;;;;;4915767;29;20276;-87
2023/06/10 01:16:57;;;;;;;6.60;5.70;;;25.60;53.40;;;;;;4932134;29;20189;-87
2023/06/10 01:19:23;;;;;;;6.30;5.77;;;25.60;53.40;;;;;;4899521;29;20187;-87
2023/06/10 01:21:51;;;;;;;5.67;5.13;;;25.60;53.40;;;;;;4930643;29;20177;-87
2023/06/10 01:24:18;;;;;;;5.43;4.93;;;25.50;53.40;;;;;;4916650;29;20177;-87
2023/06/10 01:26:49;;;;;;;7.07;5.20;;;25.50;53.40;;;;;;4916047;29;20184;-87
2023/06/10 01:29:20;;;;;;;6.20;5.30;;;25.50;53.50;;;;;;4899676;29;20628;-87
2023/06/10 01:32:15;;;;;;;6.20;5.60;;;25.50;53.50;;;;;;4898985;29;20192;-87
2023/06/10 01:34:43;;;;;;;6.00;5.43;;;25.50;53.50;;;;;;4898575;29;20684;-87
2023/06/10 01:37:13;;;;;;;6.30;5.53;;;25.50;53.60;;;;;;4898782;29;20205;-87
2023/06/10 01:39:39;;;;;;;5.80;5.30;;;25.40;53.60;;;;;;4899436;29;20498;-87
2023/06/10 01:42:06;;;;;;;5.73;5.20;;;25.40;53.70;;;;;;4916393;29;20175;-87
2023/06/10 01:44:32;;;;;;;7.17;5.80;;;25.40;53.70;;;;;;4900499;29;20185;-87
2023/06/10 01:46:58;;;;;;;6.17;5.57;;;25.40;53.70;;;;;;4919659;29;20248;-87
2023/06/10 01:49:24;;;;;;;6.20;5.60;;;25.40;53.80;;;;;;4919500;29;20324;-87
2023/06/10 01:51:50;;;;;;;5.83;5.33;;;25.40;53.80;;;;;;4918382;29;20181;-87
2023/06/10 01:54:21;;;;;;;7.43;6.00;;;25.40;53.80;;;;;;4934983;29;20173;-87
2023/06/10 01:56:48;;;;;;;6.30;5.70;;;25.30;53.80;;;;;;4920711;29;20165;-87
2023/06/10 01:59:13;;;;;;;5.80;5.30;;;25.30;54.00;;;;;;4919923;29;20493;-87
2023/06/10 02:01:46;;;;;;;6.00;5.40;;;25.30;54.00;;;;;;4935569;29;20566;-88
2023/06/10 02:04:11;;;;;;;6.70;6.00;;;25.20;53.90;;;;;;4904400;29;20177;-87
2023/06/10 02:06:37;;;;;;;6.27;5.57;;;25.20;54.00;;;;;;4935969;29;20244;-87
2023/06/10 02:09:03;;;;;;;5.23;4.73;;;25.20;54.00;;;;;;4920254;29;20584;-87
2023/06/10 02:11:29;;;;;;;6.50;5.90;;;25.20;54.00;;;;;;4936413;29;20251;-87
2023/06/10 02:13:54;;;;;;;6.47;5.80;;;25.20;54.00;;;;;;4919607;29;20656;-87
2023/06/10 02:16:21;;;;;;;6.00;5.20;;;25.20;54.00;;;;;;4935212;29;20557;-87
2023/06/10 02:18:48;;;;;;;5.63;5.10;;;25.20;54.00;;;;;;4921024;29;20200;-87
2023/06/10 02:21:14;;;;;;;6.20;5.60;;;25.20;54.10;;;;;;4935666;29;20173;-87
2023/06/10 02:23:44;;;;;;;6.80;5.10;;;25.20;54.10;;;;;;4920890;29;20632;-87
2023/06/10 02:26:10;;;;;;;6.40;5.80;;;25.10;54.10;;;;;;4905569;29;20268;-88
2023/06/10 02:28:36;;;;;;;6.13;5.63;;;25.10;54.20;;;;;;4936177;29;20504;-87
2023/06/10 02:31:17;;;;;;;6.70;5.87;;;25.10;54.30;;;;;;4936203;29;20187;-87
2023/06/10 02:33:49;;;;;;;6.70;5.50;;;25.10;54.30;;;;;;4920935;29;20283;-87
2023/06/10 02:36:15;;;;;;;5.90;5.30;;;25.10;54.30;;;;;;4904580;29;20267;-87
2023/06/10 02:38:41;;;;;;;5.93;5.33;;;25.10;54.30;;;;;;4921424;29;20300;-87
2023/06/10 02:41:08;;;;;;;6.60;5.73;;;25.10;54.30;;;;;;4904646;29;20380;-87
2023/06/10 02:43:33;;;;;;;6.00;5.37;;;25.10;54.40;;;;;;4918999;29;20477;-87
2023/06/10 02:46:06;;;;;;;6.03;5.43;;;25.00;54.40;;;;;;4920925;29;20200;-87
2023/06/10 02:48:40;;;;;;;5.50;4.90;;;25.00;54.40;;;;;;4919532;29;20371;-87
2023/06/10 02:51:06;;;;;;;5.30;4.80;;;25.00;54.50;;;;;;4904443;29;20185;-87
2023/06/10 02:53:31;;;;;;;6.63;5.30;;;24.90;54.50;;;;;;4934708;29;20357;-87
2023/06/10 02:55:57;;;;;;;5.70;5.20;;;25.00;54.60;;;;;;4918365;29;20176;-87
2023/06/10 02:58:26;;;;;;;5.37;4.77;;;24.90;54.60;;;;;;4916554;29;20212;-87
2023/06/10 03:00:56;;;;;;;5.77;5.27;;;24.90;54.60;;;;;;4916850;29;20256;-87
2023/06/10 03:03:22;;;;;;;6.03;5.30;;;24.90;54.70;;;;;;4917107;29;20280;-87
2023/06/10 03:05:48;;;;;;;5.73;5.20;;;24.90;54.70;;;;;;4932142;29;20204;-87
2023/06/10 03:08:14;;;;;;;6.17;4.93;;;24.90;54.80;;;;;;4900605;29;20176;-87
2023/06/10 03:10:40;;;;;;;5.90;5.40;;;24.90;54.80;;;;;;4901237;29;20181;-87
2023/06/10 03:13:06;;;;;;;5.77;5.27;;;24.80;54.80;;;;;;4932678;29;20177;-87
2023/06/10 03:15:36;;;;;;;6.17;5.57;;;24.80;54.90;;;;;;4940676;29;20188;-87
2023/06/10 03:18:02;;;;;;;5.70;5.20;;;24.80;54.90;;;;;;4934503;29;20207;-87
2023/06/10 03:20:28;;;;;;;6.13;5.53;;;24.80;54.90;;;;;;4934503;29;20272;-87
2023/06/10 03:22:55;;;;;;;5.50;5.00;;;24.80;55.00;;;;;;4901996;29;20177;-87
2023/06/10 03:25:20;;;;;;;5.73;5.20;;;24.80;55.00;;;;;;4919262;29;20206;-87
2023/06/10 03:27:46;;;;;;;5.63;5.00;;;24.80;55.00;;;;;;4919199;29;20188;-86
2023/06/10 03:30:13;;;;;;;5.73;5.23;;;24.80;55.00;;;;;;4934348;29;20608;-87
2023/06/10 03:32:46;;;;;;;5.67;5.17;;;24.70;55.00;;;;;;4902688;29;20201;-87
2023/06/10 03:35:21;;;;;;;5.73;5.20;;;24.70;55.10;;;;;;4933620;29;20200;-86
2023/06/10 03:37:47;;;;;;;5.87;5.27;;;24.70;55.10;;;;;;4902306;29;20498;-86
2023/06/10 03:40:12;;;;;;;8.40;5.80;;;24.70;55.10;;;;;;4932868;29;20181;-87
2023/06/10 03:42:38;;;;;;;5.83;5.13;;;24.60;55.20;;;;;;4916949;29;20272;-87
2023/06/10 03:45:05;;;;;;;5.73;5.23;;;24.60;55.20;;;;;;4933011;29;20212;-87
2023/06/10 03:47:35;;;;;;;5.60;5.00;;;24.60;55.20;;;;;;4919133;29;20169;-87
2023/06/10 03:50:03;;;;;;;6.13;5.27;;;24.60;55.30;;;;;;4933843;29;20420;-87
2023/06/10 03:52:29;;;;;;;5.70;5.20;;;24.60;55.30;;;;;;4902303;29;20327;-87
2023/06/10 03:54:55;;;;;;;6.10;5.50;;;24.60;55.40;;;;;;4917893;29;20647;-87
2023/06/10 03:57:20;;;;;;;5.73;5.23;;;24.60;55.40;;;;;;4919167;29;20348;-87
2023/06/10 03:59:46;;;;;;;5.63;5.10;;;24.60;55.50;;;;;;4901535;29;20274;-87
2023/06/10 04:02:16;;;;;;;5.93;5.30;;;24.60;55.50;;;;;;4916191;29;20501;-87
2023/06/10 04:04:42;;;;;;;5.43;4.93;;;24.60;55.50;;;;;;4931606;29;20225;-87
2023/06/10 04:07:08;;;;;;;6.23;5.60;;;24.60;55.60;;;;;;4917581;29;20165;-87
2023/06/10 04:09:35;;;;;;;6.30;5.70;;;24.60;55.60;;;;;;4931264;29;20294;-87
2023/06/10 04:12:02;;;;;;;6.17;5.57;;;24.60;55.60;;;;;;4917366;29;20157;-87
2023/06/10 04:14:28;;;;;;;5.30;4.87;;;24.60;55.60;;;;;;4900315;29;20508;-87
2023/06/10 04:16:54;;;;;;;6.17;5.57;;;24.60;55.60;;;;;;4931871;29;20236;-87
2023/06/10 04:19:20;;;;;;;5.60;5.10;;;24.60;55.60;;;;;;4917077;29;20240;-87
2023/06/10 04:21:46;;;;;;;6.10;5.20;;;24.60;55.70;;;;;;4932890;29;20177;-87
2023/06/10 04:24:12;;;;;;;5.47;4.97;;;24.60;55.70;;;;;;4933728;29;20190;-87
2023/06/10 04:26:38;;;;;;;5.90;5.27;;;24.60;55.70;;;;;;4932193;29;20520;-87
2023/06/10 04:29:04;;;;;;;5.40;4.90;;;24.60;55.70;;;;;;4916207;29;20469;-87
2023/06/10 04:31:29;;;;;;;6.37;5.63;;;24.60;55.80;;;;;;4930418;29;20181;-87
2023/06/10 04:33:55;;;;;;;6.10;5.00;;;24.60;55.80;;;;;;4914776;29;20650;-87
2023/06/10 04:36:21;;;;;;;5.70;5.20;;;24.60;55.80;;;;;;4916112;29;20179;-87
2023/06/10 04:38:46;;;;;;;5.97;5.47;;;24.70;55.80;;;;;;4931302;29;20208;-87
2023/06/10 04:41:14;;;;;;;5.93;5.30;;;24.70;55.80;;;;;;4900109;29;20177;-87
2023/06/10 04:43:44;;;;;;;5.77;5.17;;;24.70;55.70;;;;;;4930980;29;20358;-87
2023/06/10 04:46:10;;;;;;;5.67;5.17;;;24.80;55.70;;;;;;4899171;29;20180;-87
2023/06/10 04:48:37;;;;;;;6.03;5.43;;;24.80;55.70;;;;;;4932179;29;20188;-87
2023/06/10 04:51:03;;;;;;;5.90;5.37;;;24.80;55.70;;;;;;4931729;29;20272;-87
2023/06/10 04:53:28;;;;;;;6.50;5.90;;;24.80;55.60;;;;;;4916997;29;20291;-87
2023/06/10 04:55:54;;;;;;;6.70;5.47;;;24.80;55.60;;;;;;4931723;29;20619;-87
2023/06/10 04:58:20;;;;;;;6.40;5.80;;;24.90;55.70;;;;;;4931802;29;20208;-87
2023/06/10 05:00:46;;;;;;;6.20;5.60;;;24.90;56.00;;;;;;4931966;29;20479;-87
2023/06/10 05:03:12;;;;;;;6.23;5.40;;;24.90;55.60;;;;;;4931697;29;20216;-87
2023/06/10 05:05:38;;;;;;;5.90;5.30;;;24.90;55.60;;;;;;4932712;29;20256;-87
2023/06/10 05:08:03;;;;;;;6.80;5.40;;;25.00;55.50;;;;;;4931931;29;20208;-87
2023/06/10 05:10:31;;;;;;;5.93;5.33;;;25.00;55.50;;;;;;4915394;29;20180;-88
2023/06/10 05:12:58;;;;;;;7.70;6.80;;;25.10;55.50;;;;;;4915930;29;20188;-87
2023/06/10 05:15:24;;;;;;;5.70;5.20;;;25.10;55.90;;;;;;4899231;29;20185;-87
2023/06/10 05:17:50;;;;;;;6.07;5.20;;;25.00;55.70;;;;;;4915710;29;20227;-87
2023/06/10 05:20:17;;;;;;;6.13;5.53;;;25.00;55.70;;;;;;4899952;29;20200;-88
2023/06/10 05:22:42;;;;;;;6.03;5.33;;;25.10;55.60;;;;;;4899367;29;20192;-87
2023/06/10 05:25:11;;;;;;;6.83;6.13;;;25.10;55.60;;;;;;4932252;29;20181;-88
2023/06/10 05:27:37;;;;;;;7.03;5.90;;;25.20;56.10;;;;;;4916057;29;20215;-88
2023/06/10 05:30:07;;;;;;;6.43;5.17;;;25.20;55.50;;;;;;4914562;29;20448;-88
2023/06/10 05:32:33;;;;;;;5.83;5.07;;;25.30;55.30;;;;;;4914432;29;20309;-87
2023/06/10 05:34:59;;;;;;;8.87;6.07;;;25.40;55.20;;;;;;4896388;29;20197;-88
2023/06/10 05:37:25;;;;;;;8.20;6.10;;;25.40;55.40;;;;;;4929447;29;20415;-87
2023/06/10 05:39:51;;;;;;;6.00;5.40;;;25.40;55.40;;;;;;4912771;29;20573;-87
2023/06/10 05:42:17;;;;;;;6.00;5.50;;;25.40;55.10;;;;;;4928671;29;20188;-87
2023/06/10 05:44:43;;;;;;;6.03;5.47;;;25.50;54.90;;;;;;4929755;29;20177;-88
2023/06/10 05:47:09;;;;;;;5.97;5.23;;;25.60;54.80;;;;;;4928232;29;20181;-87
2023/06/10 05:49:35;;;;;;;7.20;5.60;;;25.70;54.70;;;;;;4914222;29;20458;-88
2023/06/10 05:52:13;;;;;;;5.97;5.07;;;25.80;54.60;;;;;;4930021;29;20173;-88
2023/06/10 05:54:39;;;;;;;6.27;5.60;;;25.80;54.50;;;;;;4914488;29;20192;-87
2023/06/10 05:57:05;;;;;;;5.57;4.90;;;26.00;54.50;;;;;;4931119;29;20180;-87
2023/06/10 05:59:31;;;;;;;5.60;5.10;;;26.00;54.20;;;;;;4896011;29;20173;-87
2023/06/10 06:01:58;;;;;;;5.93;5.40;;;26.10;54.20;;;;;;4927693;29;20180;-87
2023/06/10 06:04:23;;;;;;;5.63;5.07;;;26.20;54.10;;;;;;4895098;29;20504;-87
2023/06/10 06:06:56;;;;;;;6.10;5.43;;;26.20;54.00;;;;;;4926873;29;20428;-87
2023/06/10 06:09:21;;;;;;;5.70;5.00;;;26.40;53.90;;;;;;4927582;29;20249;-87
2023/06/10 06:11:47;;;;;;;5.47;4.97;;;26.40;54.20;;;;;;4911406;29;20173;-87
2023/06/10 06:14:21;;;;;;;5.30;4.80;;;26.60;53.80;;;;;;4912177;29;20177;-87
2023/06/10 06:16:47;;;;;;;5.50;5.00;;;26.70;53.50;;;;;;4928976;29;20181;-87
2023/06/10 06:19:12;;;;;;;5.00;4.57;;;26.90;53.40;;;;;;4928951;29;20219;-87
2023/06/10 06:21:38;;;;;;;5.33;4.83;;;27.00;53.20;;;;;;4928696;29;20184;-87
2023/06/10 06:24:04;;;;;;;5.50;5.00;;;27.10;53.10;;;;;;4932474;29;20165;-87
2023/06/10 06:26:30;;;;;;;5.10;4.60;;;27.20;52.90;;;;;;4917587;29;20196;-87
2023/06/10 06:28:55;;;;;;;4.90;4.40;;;27.40;52.90;;;;;;4927814;29;20185;-87
2023/06/10 06:31:22;;;;;;;5.83;5.23;;;27.50;52.60;;;;;;4928808;29;20181;-88
2023/06/10 06:33:52;;;;;;;5.77;5.20;;;27.70;52.50;;;;;;4914687;29;20203;-87
2023/06/10 06:36:19;;;;;;;5.70;5.20;;;27.80;52.40;;;;;;4932346;29;20379;-87
2023/06/10 06:38:47;;;;;;;5.30;4.67;;;27.90;52.50;;;;;;4930921;29;20212;-88
2023/06/10 06:41:13;;;;;;;5.73;5.13;;;28.00;52.30;;;;;;4899755;29;20280;-87
2023/06/10 06:43:39;;;;;;;5.73;4.67;;;28.10;51.90;;;;;;4931558;29;20283;-87
2023/06/10 06:46:05;;;;;;;5.53;5.03;;;28.30;51.90;;;;;;4931464;29;20268;-87
2023/06/10 06:48:31;;;;;;;5.57;4.87;;;28.40;51.80;;;;;;4931189;29;20212;-87
2023/06/10 06:50:57;;;;;;;6.87;4.70;;;28.50;51.50;;;;;;4901382;29;20216;-88
2023/06/10 06:53:27;;;;;;;5.53;5.03;;;28.70;51.50;;;;;;4916532;29;20241;-88
2023/06/10 06:55:53;;;;;;;6.70;5.43;;;28.80;51.40;;;;;;4913548;29;20447;-88
2023/06/10 06:58:18;;;;;;;7.17;5.40;;;28.90;51.30;;;;;;4895563;29;20212;-88
2023/06/10 07:00:44;;;;;;;6.10;4.93;;;29.10;51.10;;;;;;4926938;29;20361;-88
2023/06/10 07:03:11;;;;;;;5.40;4.90;;;29.20;50.80;;;;;;4926537;29;20177;-88
2023/06/10 07:05:37;;;;;;;5.33;4.63;;;29.50;50.50;;;;;;4928874;29;20546;-88
2023/06/10 07:08:03;;;;;;;6.10;5.27;;;29.80;50.20;;;;;;4897655;29;20207;-88
2023/06/10 07:10:29;;;;;;;5.10;4.70;;;30.20;49.80;;;;;;4929529;29;20493;-88
2023/06/10 07:12:54;;;;;;;5.50;4.60;;;30.50;49.40;;;;;;4915158;29;20224;-88
2023/06/10 07:15:20;;;;;;;5.03;4.53;;;30.80;48.90;;;;;;4930787;29;20688;-88
2023/06/10 07:17:46;;;;;;;5.43;4.93;;;31.10;48.50;;;;;;4931112;29;20220;-88
2023/06/10 07:20:14;;;;;;;5.70;4.93;;;31.50;48.20;;;;;;4900413;29;20181;-88
2023/06/10 07:22:42;;;;;;;5.30;4.80;;;31.70;47.80;;;;;;4914347;29;20200;-88
2023/06/10 07:25:08;;;;;;;5.93;4.53;;;31.80;47.70;;;;;;4914740;29;20176;-88
2023/06/10 07:27:36;;;;;;;6.07;4.78;;;32.10;47.30;;;;;;4930379;29;20216;-88
2023/06/10 07:30:07;;;;;;;5.30;4.30;;;32.20;47.10;;;;;;4913349;29;20521;-88
2023/06/10 07:32:33;;;;;;;5.53;5.03;;;32.40;47.00;;;;;;4898122;29;20196;-88
2023/06/10 07:34:59;;;;;;;5.03;4.50;;;32.60;46.80;;;;;;4929631;29;20204;-88
2023/06/10 07:37:25;;;;;;;5.38;4.43;;;32.70;46.60;;;;;;4927650;29;20185;-88
2023/06/10 07:39:50;;;;;;;6.25;5.00;;;32.90;46.40;;;;;;4927513;29;20176;-88
2023/06/10 07:42:16;;;;;;;5.40;4.90;;;33.10;46.30;;;;;;4926992;29;20799;-88
2023/06/10 07:44:42;;;;;;;4.60;4.13;;;33.30;46.10;;;;;;4928971;29;20331;-88
2023/06/10 07:47:08;;;;;;;4.35;3.95;;;33.50;45.80;;;;;;4914076;29;20229;-88
2023/06/10 07:49:34;;;;;;;5.50;4.45;;;33.40;45.80;;;;;;4927356;29;20394;-88
2023/06/10 07:51:59;;;;;;;4.90;4.45;;;33.50;45.60;;;;;;4910166;29;20438;-88
2023/06/10 07:54:25;;;;;;;4.50;4.10;;;33.50;45.40;;;;;;4925226;29;20505;-88
2023/06/10 07:56:52;;;;;;;4.72;4.32;;;33.70;45.40;;;;;;4910032;29;20177;-88
2023/06/10 07:59:18;;;;;;;4.72;4.32;;;33.80;45.30;;;;;;4923193;29;20205;-89
2023/06/10 08:01:44;;;;;;;4.75;4.25;;;33.90;45.20;;;;;;4892286;29;20271;-88
2023/06/10 08:04:10;;;;;;;4.93;4.45;;;33.90;45.20;;;;;;4922244;29;20173;-88
2023/06/10 08:06:36;;;;;;;4.70;4.30;;;34.10;45.00;;;;;;4892244;29;20395;-88
2023/06/10 08:09:03;;;;;;;4.70;4.30;;;34.10;44.80;;;;;;4924975;29;20411;-88
2023/06/10 08:11:29;;;;;;;4.72;4.22;;;34.30;44.80;;;;;;4910214;29;20185;-88
2023/06/10 08:13:55;;;;;;;4.57;4.07;;;34.30;44.60;;;;;;4926991;29;20189;-89
2023/06/10 08:16:21;;;;;;;5.00;4.50;;;34.50;44.70;;;;;;4926249;29;20496;-89
2023/06/10 08:18:47;;;;;;;5.28;4.10;;;34.60;44.60;;;;;;4911959;29;20197;-88
2023/06/10 08:21:13;;;;;;;5.53;4.25;;;34.70;44.40;;;;;;4926421;29;20596;-88
2023/06/10 08:23:39;;;;;;;4.60;4.20;;;34.80;44.40;;;;;;4910624;29;20187;-88
2023/06/10 08:26:04;;;;;;;4.40;3.97;;;34.70;44.20;;;;;;4911137;29;20394;-89
2023/06/10 08:28:30;;;;;;;4.93;4.43;;;34.70;44.30;;;;;;4911970;29;20177;-88
2023/06/10 08:30:56;;;;;;;4.57;4.20;;;34.80;44.30;;;;;;4896714;29;20752;-88
2023/06/10 08:33:22;;;;;;;4.63;3.90;;;34.80;44.20;;;;;;4928115;29;20208;-89
2023/06/10 08:35:47;;;;;;;4.53;4.10;;;34.70;44.40;;;;;;4911672;29;20197;-88
2023/06/10 08:38:13;;;;;;;4.78;4.20;;;34.60;44.40;;;;;;4927812;29;20208;-89
2023/06/10 08:40:40;;;;;;;4.40;4.00;;;34.70;44.40;;;;;;4894128;29;20440;-89
2023/06/10 08:43:10;;;;;;;4.40;4.00;;;34.50;44.50;;;;;;4911360;29;20436;-89
2023/06/10 08:45:37;;;;;;;4.82;4.20;;;34.40;44.70;;;;;;4894710;29;20271;-89
2023/06/10 08:48:06;;;;;;;4.47;3.97;;;34.30;44.90;;;;;;4893537;29;20503;-89
2023/06/10 08:50:38;;;;;;;4.10;3.80;;;34.00;45.00;;;;;;4895315;29;20193;-89
2023/06/10 08:53:08;;;;;;;4.55;3.97;;;33.80;45.20;;;;;;4910719;29;20180;-89
2023/06/10 08:55:41;;;;;;;4.95;4.15;;;33.70;45.40;;;;;;4892534;29;20268;-89
2023/06/10 08:58:07;;;;;;;5.10;4.60;;;33.60;45.50;;;;;;4890902;29;20220;-89
2023/06/10 09:00:34;;;;;;;5.07;4.60;;;33.70;45.50;;;;;;4907235;29;20424;-89
2023/06/10 09:03:02;;;;;;;4.53;4.13;;;33.60;45.50;;;;;;4893755;29;20670;-89
2023/06/10 09:05:29;;;;;;;4.90;4.40;;;33.50;46.00;;;;;;4923346;29;20439;-89
2023/06/10 09:07:57;;;;;;;6.10;5.20;;;33.50;45.40;;;;;;4891378;29;20240;-89
2023/06/10 09:10:23;;;;;;;4.70;4.30;;;33.30;44.30;;;;;;4893501;29;20176;-89
2023/06/10 09:12:49;;;;;;;5.60;5.10;;;33.30;45.50;;;;;;4908046;29;20465;-89
2023/06/10 09:15:17;;;;;;;4.80;4.40;;;33.30;45.50;;;;;;4921107;29;20240;-88
2023/06/10 09:17:43;;;;;;;7.20;4.82;;;33.30;45.80;;;;;;4906048;29;20215;-89
2023/06/10 09:20:10;;;;;;;6.65;4.57;;;33.30;45.70;;;;;;4890709;29;20181;-89
2023/06/10 09:22:35;;;;;;;4.70;4.22;;;33.30;45.80;;;;;;4916207;29;20447;-89
2023/06/10 09:25:08;;;;;;;5.72;4.97;;;33.10;45.80;;;;;;4923942;29;20278;-88
2023/06/10 09:27:56;;;;;;;4.90;4.40;;;33.20;45.40;;;;;;4908171;29;20311;-88
2023/06/10 09:30:28;;;;;;;4.93;4.43;;;33.10;45.90;;;;;;4909836;29;20165;-89
2023/06/10 09:32:56;;;;;;;6.97;4.30;;;33.20;45.90;;;;;;4907912;29;20408;-89
2023/06/10 09:35:27;;;;;;;5.00;4.50;;;32.90;46.10;;;;;;4909231;29;20256;-89
2023/06/10 09:37:53;;;;;;;5.82;4.60;;;32.90;46.20;;;;;;4892371;29;20204;-88
2023/06/10 09:40:19;;;;;;;4.82;4.38;;;32.90;46.30;;;;;;4891557;29;20518;-89
2023/06/10 09:42:48;;;;;;;5.97;4.40;;;32.80;46.40;;;;;;4905648;29;20477;-89
2023/06/10 09:45:14;;;;;;;4.82;4.43;;;32.80;46.40;;;;;;4887339;29;20597;-89
2023/06/10 09:47:40;;;;;;;5.13;4.35;;;32.80;46.60;;;;;;4902834;29;20188;-89
2023/06/10 09:50:06;;;;;;;6.05;4.40;;;32.70;46.50;;;;;;4904165;29;20244;-88
2023/06/10 09:52:32;;;;;;;4.97;4.25;;;32.70;46.60;;;;;;4920019;29;20177;-89
2023/06/10 09:55:02;;;;;;;5.97;4.43;;;32.60;46.70;;;;;;4904685;29;20371;-89
2023/06/10 09:57:35;;;;;;;5.03;4.47;;;32.60;46.80;;;;;;4889516;29;20271;-89
2023/06/10 10:00:09;;;;;;;6.43;4.50;;;32.60;46.90;;;;;;4907682;29;20165;-89
2023/06/10 10:02:51;;;;;;;5.88;4.82;;;32.60;46.80;;;;;;4889120;29;20507;-89
2023/06/10 10:05:18;;;;;;;4.47;4.05;;;32.80;46.50;;;;;;4903463;29;20632;-88
2023/06/10 10:07:45;;;;;;;6.18;4.55;;;32.70;46.80;;;;;;4888462;29;20208;-89
2023/06/10 10:10:11;;;;;;;5.28;4.45;;;32.60;46.70;;;;;;4921760;29;20173;-89
2023/06/10 10:12:42;;;;;;;6.10;4.30;;;32.60;46.90;;;;;;4888833;29;20341;-88
2023/06/10 10:15:09;;;;;;;4.80;4.30;;;32.50;46.90;;;;;;4887908;29;20348;-88
2023/06/10 10:17:44;;;;;;;4.88;4.38;;;32.50;47.00;;;;;;4888922;29;20188;-88
2023/06/10 10:20:12;;;;;;;5.55;4.55;;;32.50;47.10;;;;;;4889977;29;20252;-89
2023/06/10 10:22:40;;;;;;;4.60;3.72;;;32.40;47.30;;;;;;4906533;29;20161;-89
2023/06/10 10:25:29;;;;;;;9.10;4.65;;;32.20;47.30;;;;;;4909851;29;20256;-89
2023/06/10 10:28:10;;;;;;;4.70;4.07;;;32.10;47.50;;;;;;4894168;29;20200;-88
2023/06/10 10:30:44;;;;;;;4.65;4.25;;;32.20;47.60;;;;;;4909540;29;20243;-89
2023/06/10 10:33:18;;;;;;;5.22;4.20;;;32.10;47.50;;;;;;4894124;29;20180;-88
2023/06/10 10:35:45;;;;;;;8.10;4.68;;;32.00;47.70;;;;;;4893898;29;20250;-89
2023/06/10 10:38:11;;;;;;;5.28;4.50;;;32.00;47.80;;;;;;4891741;29;20216;-89
2023/06/10 10:40:38;;;;;;;5.30;4.50;;;32.00;47.00;;;;;;4911976;29;20173;-88
2023/06/10 10:43:05;;;;;;;7.18;4.55;;;31.90;47.90;;;;;;4910283;29;20227;-88
2023/06/10 10:45:34;;;;;;;5.38;4.53;;;31.90;47.90;;;;;;4892688;29;20212;-88
2023/06/10 10:48:11;;;;;;;5.13;4.57;;;31.90;48.00;;;;;;4892912;29;20185;-88
2023/06/10 10:50:38;;;;;;;4.50;4.10;;;31.80;48.00;;;;;;4889040;29;20374;-89
2023/06/10 10:53:17;;;;;;;5.03;4.22;;;31.80;48.20;;;;;;4891440;29;20196;-88
2023/06/10 10:56:08;;;;;;;5.82;4.13;;;31.80;48.20;;;;;;4892731;29;20244;-89
2023/06/10 10:58:34;;;;;;;5.03;4.63;;;31.80;48.30;;;;;;4890190;29;20423;-88
2023/06/10 11:01:14;;;;;;;6.15;4.40;;;31.70;47.70;;;;;;4889712;29;20179;-88
2023/06/10 11:03:47;;;;;;;5.63;4.20;;;31.60;47.80;;;;;;4891222;29;20281;-88
2023/06/10 11:06:17;;;;;;;5.32;4.82;;;31.70;48.20;;;;;;4891179;29;20172;-89
2023/06/10 11:08:49;;;;;;;5.18;4.55;;;31.70;47.60;;;;;;4906719;29;20564;-88
2023/06/10 11:11:25;;;;;;;6.00;4.22;;;31.70;48.10;;;;;;4907087;29;20625;-88
2023/06/10 11:14:27;;;;;;;5.72;4.95;;;31.70;48.20;;;;;;4893156;29;20207;-88
2023/06/10 11:16:57;;;;;;;6.28;4.32;;;31.60;47.70;;;;;;4909821;29;20176;-88
2023/06/10 11:19:37;;;;;;;5.07;4.35;;;31.60;48.40;;;;;;4891438;29;20477;-88
2023/06/10 11:22:07;;;;;;;5.93;4.82;;;31.50;48.40;;;;;;4893481;29;20184;-88
2023/06/10 11:24:33;;;;;;;5.95;4.75;;;31.60;47.80;;;;;;4907240;29;20747;-88
2023/06/10 11:27:18;;;;;;;6.93;5.30;;;31.50;47.90;;;;;;4907489;29;20173;-88
2023/06/10 11:30:00;;;;;;;7.38;5.50;;;31.50;47.60;;;;;;4889840;29;20176;-88
2023/06/10 11:32:31;;;;;;;6.00;4.78;;;31.50;45.30;;;;;;4904146;29;20188;-88
2023/06/10 11:34:57;;;;;;;5.43;4.57;;;31.30;47.30;;;;;;4890758;29;20721;-88
2023/06/10 11:37:22;;;;;;;5.00;4.60;;;31.40;48.10;;;;;;4890239;29;20335;-88
2023/06/10 11:39:53;;;;;;;4.28;3.85;;;31.40;48.20;;;;;;4903082;29;20173;-88
2023/06/10 11:42:19;;;;;;;4.80;4.20;;;31.40;48.00;;;;;;4906225;29;20349;-88
2023/06/10 11:44:54;;;;;;;6.05;5.40;;;31.40;48.40;;;;;;4921622;29;20184;-88
2023/06/10 11:47:21;;;;;;;5.93;5.05;;;31.50;45.90;;;;;;4906436;29;20172;-89
2023/06/10 11:49:56;;;;;;;5.72;5.10;;;31.50;47.00;;;;;;4888773;29;20570;-88
2023/06/10 11:52:33;;;;;;;5.30;4.80;;;31.30;47.80;;;;;;4890358;29;20212;-88
2023/06/10 11:54:59;;;;;;;5.88;4.57;;;31.30;46.30;;;;;;4890510;29;20181;-89
2023/06/10 11:57:25;;;;;;;5.05;4.55;;;31.10;47.80;;;;;;4907690;29;20353;-88
2023/06/10 11:59:50;;;;;;;5.43;4.43;;;31.00;47.80;;;;;;4925634;29;20173;-88
2023/06/10 12:02:17;;;;;;;7.63;5.03;;;31.10;47.90;;;;;;4923960;29;20248;-88
2023/06/10 12:04:47;;;;;;;6.80;5.28;;;31.20;46.80;;;;;;4893150;29;20170;-88
2023/06/10 12:07:21;;;;;;;6.63;5.20;;;31.20;46.70;;;;;;4890801;29;20177;-88
2023/06/10 12:09:46;;;;;;;6.18;5.18;;;31.20;46.30;;;;;;4917222;29;20192;-88
2023/06/10 12:12:12;;;;;;;6.75;5.35;;;31.20;46.40;;;;;;4907285;29;20390;-88
2023/06/10 12:14:58;;;;;;;5.85;5.32;;;31.10;47.20;;;;;;4922846;29;20181;-88
2023/06/10 12:17:36;;;;;;;5.65;5.03;;;31.10;46.70;;;;;;4891220;29;20761;-88
2023/06/10 12:20:07;;;;;;;7.32;5.10;;;31.20;46.80;;;;;;4907631;29;20604;-88
2023/06/10 12:22:43;;;;;;;5.40;4.90;;;31.20;46.80;;;;;;4891859;29;20184;-88
2023/06/10 12:25:11;;;;;;;8.25;4.95;;;31.10;47.80;;;;;;4889736;29;20270;-88
2023/06/10 12:27:49;;;;;;;5.07;4.57;;;31.10;47.10;;;;;;4892075;29;20391;-88
2023/06/10 12:30:20;;;;;;;6.10;5.50;;;31.10;48.20;;;;;;4906965;29;20572;-88
2023/06/10 12:32:46;;;;;;;5.55;4.90;;;31.10;47.20;;;;;;4907095;29;20494;-88
2023/06/10 12:35:17;;;;;;;5.45;4.95;;;31.00;47.10;;;;;;4891126;29;20193;-88
2023/06/10 12:37:42;;;;;;;5.50;4.93;;;31.00;47.20;;;;;;4889683;29;20431;-88
2023/06/10 12:40:09;;;;;;;6.25;5.30;;;31.00;47.70;;;;;;4908321;29;20166;-88
2023/06/10 12:42:39;;;;;;;5.57;5.05;;;31.00;46.60;;;;;;4907026;29;20173;-88
2023/06/10 12:45:07;;;;;;;5.65;5.13;;;30.90;47.00;;;;;;4891018;29;20184;-88
2023/06/10 12:47:35;;;;;;;7.22;5.10;;;31.00;46.80;;;;;;4893896;29;20425;-89
2023/06/10 12:50:02;;;;;;;6.13;4.90;;;31.00;47.40;;;;;;4890841;29;20177;-88
2023/06/10 12:52:28;;;;;;;6.47;5.85;;;31.00;46.60;;;;;;4892547;29;20604;-88